sensor_id;sensor_type;location;lat;lon;timestamp;pressure;altitude;pressure_sealevel;temperature;humidity
77360;BME280;66426;51.454;7.266;2023-05-28T00:00:15;100551.13;;;14.24;67.36
77360;BME280;66426;51.454;7.266;2023-05-28T00:01:16;100551.13;;;14.24;67.06
77360;BME280;66426;51.454;7.266;2023-05-28T00:02:18;100548.69;;;14.20;67.59
77360;BME280;66426;51.454;7.266;2023-05-28T00:03:19;100555.69;;;14.24;67.06
77360;BME280;66426;51.454;7.266;2023-05-28T00:04:20;100557.06;;;14.31;66.77
77360;BME280;66426;51.454;7.266;2023-05-28T00:05:25;100550.31;;;14.38;66.87
77360;BME280;66426;51.454;7.266;2023-05-28T00:06:26;100552.13;;;14.23;67.23
77360;BME280;66426;51.454;7.266;2023-05-28T00:07:27;100545.91;;;14.21;67.51
77360;BME280;66426;51.454;7.266;2023-05-28T00:08:29;100542.22;;;14.22;66.96
77360;BME280;66426;51.454;7.266;2023-05-28T00:09:29;100550.09;;;14.27;67.00
77360;BME280;66426;51.454;7.266;2023-05-28T00:10:30;100540.50;;;14.21;67.15
77360;BME280;66426;51.454;7.266;2023-05-28T00:11:33;100547.03;;;14.17;67.25
77360;BME280;66426;51.454;7.266;2023-05-28T00:12:33;100544.78;;;14.10;67.57
77360;BME280;66426;51.454;7.266;2023-05-28T00:13:34;100542.78;;;14.13;67.58
77360;BME280;66426;51.454;7.266;2023-05-28T00:14:35;100548.81;;;14.18;67.44
77360;BME280;66426;51.454;7.266;2023-05-28T00:15:36;100540.63;;;14.04;67.90
77360;BME280;66426;51.454;7.266;2023-05-28T00:16:40;100544.66;;;13.97;68.31
77360;BME280;66426;51.454;7.266;2023-05-28T00:17:43;100545.50;;;13.97;68.24
77360;BME280;66426;51.454;7.266;2023-05-28T00:18:44;100544.13;;;14.06;67.66
77360;BME280;66426;51.454;7.266;2023-05-28T00:19:45;100543.00;;;13.94;68.12
77360;BME280;66426;51.454;7.266;2023-05-28T00:20:46;100540.53;;;13.90;67.97
77360;BME280;66426;51.454;7.266;2023-05-28T00:21:48;100539.50;;;13.92;68.24
77360;BME280;66426;51.454;7.266;2023-05-28T00:22:49;100539.34;;;13.95;68.41
77360;BME280;66426;51.454;7.266;2023-05-28T00:23:51;100535.56;;;13.98;68.35
77360;BME280;66426;51.454;7.266;2023-05-28T00:24:52;100540.34;;;14.09;67.89
77360;BME280;66426;51.454;7.266;2023-05-28T00:25:53;100540.22;;;13.96;68.10
77360;BME280;66426;51.454;7.266;2023-05-28T00:26:55;100537.56;;;13.94;68.27
77360;BME280;66426;51.454;7.266;2023-05-28T00:27:56;100539.75;;;13.88;68.41
77360;BME280;66426;51.454;7.266;2023-05-28T00:28:57;100539.44;;;13.78;68.58
77360;BME280;66426;51.454;7.266;2023-05-28T00:29:58;100535.50;;;13.68;68.86
77360;BME280;66426;51.454;7.266;2023-05-28T00:30:59;100536.19;;;13.87;68.33
77360;BME280;66426;51.454;7.266;2023-05-28T00:31:59;100535.50;;;13.84;68.31
77360;BME280;66426;51.454;7.266;2023-05-28T00:33:00;100537.34;;;13.83;68.33
77360;BME280;66426;51.454;7.266;2023-05-28T00:34:01;100529.97;;;13.85;68.18
77360;BME280;66426;51.454;7.266;2023-05-28T00:35:03;100540.53;;;13.90;68.38
77360;BME280;66426;51.454;7.266;2023-05-28T00:36:04;100540.72;;;13.87;67.91
77360;BME280;66426;51.454;7.266;2023-05-28T00:37:06;100537.88;;;13.74;68.93
77360;BME280;66426;51.454;7.266;2023-05-28T00:38:07;100532.25;;;13.77;68.72
77360;BME280;66426;51.454;7.266;2023-05-28T00:39:08;100537.78;;;13.75;68.25
77360;BME280;66426;51.454;7.266;2023-05-28T00:40:09;100533.84;;;13.81;68.55
77360;BME280;66426;51.454;7.266;2023-05-28T00:41:10;100529.81;;;13.72;69.05
77360;BME280;66426;51.454;7.266;2023-05-28T00:42:12;100528.94;;;13.72;68.95
77360;BME280;66426;51.454;7.266;2023-05-28T00:43:13;100529.81;;;13.72;69.02
77360;BME280;66426;51.454;7.266;2023-05-28T00:44:14;100531.66;;;13.72;69.53
77360;BME280;66426;51.454;7.266;2023-05-28T00:45:15;100532.38;;;13.75;69.13
77360;BME280;66426;51.454;7.266;2023-05-28T00:46:18;100533.31;;;13.74;69.05
77360;BME280;66426;51.454;7.266;2023-05-28T00:47:19;100539.00;;;13.70;69.78
77360;BME280;66426;51.454;7.266;2023-05-28T00:48:20;100530.19;;;13.66;69.97
77360;BME280;66426;51.454;7.266;2023-05-28T00:49:21;100528.59;;;13.62;70.28
77360;BME280;66426;51.454;7.266;2023-05-28T00:50:23;100538.84;;;13.73;70.20
77360;BME280;66426;51.454;7.266;2023-05-28T00:51:26;100525.31;;;13.73;70.00
77360;BME280;66426;51.454;7.266;2023-05-28T00:52:27;100532.97;;;13.80;69.78
77360;BME280;66426;51.454;7.266;2023-05-28T00:53:28;100538.91;;;13.71;69.77
77360;BME280;66426;51.454;7.266;2023-05-28T00:54:30;100533.53;;;13.55;70.15
77360;BME280;66426;51.454;7.266;2023-05-28T00:55:31;100522.41;;;13.44;69.94
77360;BME280;66426;51.454;7.266;2023-05-28T00:56:32;100526.00;;;13.45;70.41
77360;BME280;66426;51.454;7.266;2023-05-28T00:57:34;100532.13;;;13.48;70.32
77360;BME280;66426;51.454;7.266;2023-05-28T00:58:37;100527.56;;;13.65;70.20
77360;BME280;66426;51.454;7.266;2023-05-28T00:59:40;100525.31;;;13.73;69.71
77360;BME280;66426;51.454;7.266;2023-05-28T01:00:43;100528.00;;;13.73;69.52
77360;BME280;66426;51.454;7.266;2023-05-28T01:01:44;100523.00;;;13.65;69.99
77360;BME280;66426;51.454;7.266;2023-05-28T01:02:45;100512.28;;;13.64;69.58
77360;BME280;66426;51.454;7.266;2023-05-28T01:03:46;100516.84;;;13.63;69.79
77360;BME280;66426;51.454;7.266;2023-05-28T01:04:47;100520.06;;;13.54;69.71
77360;BME280;66426;51.454;7.266;2023-05-28T01:05:48;100520.38;;;13.48;69.80
77360;BME280;66426;51.454;7.266;2023-05-28T01:06:49;100516.13;;;13.44;70.13
77360;BME280;66426;51.454;7.266;2023-05-28T01:07:50;100520.94;;;13.54;69.76
77360;BME280;66426;51.454;7.266;2023-05-28T01:08:51;100522.50;;;13.58;69.56
77360;BME280;66426;51.454;7.266;2023-05-28T01:09:52;100519.44;;;13.49;69.67
77360;BME280;66426;51.454;7.266;2023-05-28T01:10:54;100519.44;;;13.49;69.15
77360;BME280;66426;51.454;7.266;2023-05-28T01:11:55;100520.56;;;13.45;69.38
77360;BME280;66426;51.454;7.266;2023-05-28T01:12:59;100519.00;;;13.56;69.15
77360;BME280;66426;51.454;7.266;2023-05-28T01:14:01;100523.19;;;13.62;69.21
77360;BME280;66426;51.454;7.266;2023-05-28T01:15:03;100523.31;;;13.61;68.54
77360;BME280;66426;51.454;7.266;2023-05-28T01:16:05;100520.94;;;13.54;69.02
77360;BME280;66426;51.454;7.266;2023-05-28T01:17:06;100513.50;;;13.42;69.32
77360;BME280;66426;51.454;7.266;2023-05-28T01:18:07;100523.38;;;13.43;69.30
77360;BME280;66426;51.454;7.266;2023-05-28T01:19:09;100528.38;;;13.51;68.68
77360;BME280;66426;51.454;7.266;2023-05-28T01:20:11;100519.97;;;13.55;69.38
77360;BME280;66426;51.454;7.266;2023-05-28T01:21:14;100525.91;;;13.46;69.21
77360;BME280;66426;51.454;7.266;2023-05-28T01:22:17;100531.41;;;13.29;69.76
77360;BME280;66426;51.454;7.266;2023-05-28T01:23:18;100530.47;;;13.12;70.46
77360;BME280;66426;51.454;7.266;2023-05-28T01:24:25;100531.34;;;13.13;70.76
77360;BME280;66426;51.454;7.266;2023-05-28T01:25:30;100525.25;;;13.25;70.27
77360;BME280;66426;51.454;7.266;2023-05-28T01:26:31;100523.50;;;13.08;70.50
77360;BME280;66426;51.454;7.266;2023-05-28T01:27:32;100522.69;;;13.06;70.00
77360;BME280;66426;51.454;7.266;2023-05-28T01:28:33;100526.56;;;13.18;69.72
77360;BME280;66426;51.454;7.266;2023-05-28T01:29:34;100528.22;;;13.21;70.21
77360;BME280;66426;51.454;7.266;2023-05-28T01:30:35;100522.19;;;13.15;69.95
77360;BME280;66426;51.454;7.266;2023-05-28T01:31:35;100522.81;;;13.21;70.17
77360;BME280;66426;51.454;7.266;2023-05-28T01:32:36;100519.31;;;13.19;70.13
77360;BME280;66426;51.454;7.266;2023-05-28T01:33:38;100522.53;;;13.25;69.66
77360;BME280;66426;51.454;7.266;2023-05-28T01:34:39;100516.34;;;13.23;69.99
77360;BME280;66426;51.454;7.266;2023-05-28T01:35:41;100520.53;;;13.13;69.87
77360;BME280;66426;51.454;7.266;2023-05-28T01:36:45;100518.53;;;13.16;70.21
77360;BME280;66426;51.454;7.266;2023-05-28T01:37:49;100511.88;;;13.22;69.40
77360;BME280;66426;51.454;7.266;2023-05-28T01:38:52;100515.03;;;13.14;70.14
77360;BME280;66426;51.454;7.266;2023-05-28T01:39:56;100518.09;;;13.24;69.96
77360;BME280;66426;51.454;7.266;2023-05-28T01:40:58;100516.09;;;13.28;69.43
77360;BME280;66426;51.454;7.266;2023-05-28T01:42:00;100513.19;;;12.99;70.32
77360;BME280;66426;51.454;7.266;2023-05-28T01:43:02;100513.25;;;12.98;70.22
77360;BME280;66426;51.454;7.266;2023-05-28T01:44:04;100512.59;;;12.77;70.86
77360;BME280;66426;51.454;7.266;2023-05-28T01:45:09;100515.16;;;12.62;71.74
77360;BME280;66426;51.454;7.266;2023-05-28T01:46:11;100517.13;;;12.76;71.56
77360;BME280;66426;51.454;7.266;2023-05-28T01:47:13;100506.44;;;12.90;71.20
77360;BME280;66426;51.454;7.266;2023-05-28T01:48:14;100507.47;;;12.88;71.10
77360;BME280;66426;51.454;7.266;2023-05-28T01:49:16;100512.81;;;12.89;71.51
77360;BME280;66426;51.454;7.266;2023-05-28T01:50:18;100508.72;;;12.98;71.18
77360;BME280;66426;51.454;7.266;2023-05-28T01:51:20;100506.16;;;12.95;71.01
77360;BME280;66426;51.454;7.266;2023-05-28T01:52:21;100509.66;;;12.81;71.02
77360;BME280;66426;51.454;7.266;2023-05-28T01:53:22;100508.31;;;12.72;71.70
77360;BME280;66426;51.454;7.266;2023-05-28T01:54:23;100511.81;;;12.74;71.82
77360;BME280;66426;51.454;7.266;2023-05-28T01:55:26;100499.63;;;12.83;71.33
77360;BME280;66426;51.454;7.266;2023-05-28T01:56:27;100500.16;;;12.90;71.23
77360;BME280;66426;51.454;7.266;2023-05-28T01:57:28;100496.75;;;12.86;70.86
77360;BME280;66426;51.454;7.266;2023-05-28T01:58:29;100499.34;;;12.88;70.96
77360;BME280;66426;51.454;7.266;2023-05-28T01:59:30;100496.16;;;12.97;70.67
77360;BME280;66426;51.454;7.266;2023-05-28T02:00:32;100496.75;;;13.02;70.53
77360;BME280;66426;51.454;7.266;2023-05-28T02:01:34;100498.16;;;12.93;70.40
77360;BME280;66426;51.454;7.266;2023-05-28T02:02:36;100503.41;;;12.97;70.58
77360;BME280;66426;51.454;7.266;2023-05-28T02:03:37;100491.50;;;12.83;70.78
77360;BME280;66426;51.454;7.266;2023-05-28T02:04:38;100505.69;;;12.71;71.28
77360;BME280;66426;51.454;7.266;2023-05-28T02:05:39;100500.38;;;12.69;71.79
77360;BME280;66426;51.454;7.266;2023-05-28T02:06:40;100490.97;;;12.77;71.56
77360;BME280;66426;51.454;7.266;2023-05-28T02:07:41;100494.50;;;12.61;71.78
77360;BME280;66426;51.454;7.266;2023-05-28T02:08:42;100490.31;;;12.56;71.85
77360;BME280;66426;51.454;7.266;2023-05-28T02:09:43;100496.72;;;12.70;71.60
77360;BME280;66426;51.454;7.266;2023-05-28T02:10:46;100487.16;;;12.81;71.37
77360;BME280;66426;51.454;7.266;2023-05-28T02:11:47;100492.97;;;12.73;70.90
77360;BME280;66426;51.454;7.266;2023-05-28T02:12:48;100488.34;;;12.75;71.21
77360;BME280;66426;51.454;7.266;2023-05-28T02:13:49;100496.63;;;12.72;71.46
77360;BME280;66426;51.454;7.266;2023-05-28T02:14:50;100494.03;;;12.70;71.41
77360;BME280;66426;51.454;7.266;2023-05-28T02:15:51;100495.03;;;12.68;71.31
77360;BME280;66426;51.454;7.266;2023-05-28T02:16:52;100494.19;;;12.50;71.49
77360;BME280;66426;51.454;7.266;2023-05-28T02:17:55;100497.94;;;12.30;72.50
77360;BME280;66426;51.454;7.266;2023-05-28T02:18:57;100494.06;;;12.01;73.20
77360;BME280;66426;51.454;7.266;2023-05-28T02:19:59;100498.25;;;11.89;73.60
77360;BME280;66426;51.454;7.266;2023-05-28T02:21:00;100496.59;;;11.68;74.99
77360;BME280;66426;51.454;7.266;2023-05-28T02:22:01;100497.03;;;11.77;74.45
77360;BME280;66426;51.454;7.266;2023-05-28T02:23:04;100497.06;;;11.95;73.94
77360;BME280;66426;51.454;7.266;2023-05-28T02:24:06;100492.63;;;11.94;74.24
77360;BME280;66426;51.454;7.266;2023-05-28T02:25:07;100495.69;;;11.86;74.08
77360;BME280;66426;51.454;7.266;2023-05-28T02:26:09;100489.38;;;11.68;74.58
77360;BME280;66426;51.454;7.266;2023-05-28T02:27:10;100491.38;;;11.64;74.95
77360;BME280;66426;51.454;7.266;2023-05-28T02:28:11;100499.31;;;11.68;75.29
77360;BME280;66426;51.454;7.266;2023-05-28T02:29:12;100491.44;;;11.99;74.65
77360;BME280;66426;51.454;7.266;2023-05-28T02:30:13;100499.53;;;12.34;73.42
77360;BME280;66426;51.454;7.266;2023-05-28T02:31:15;100495.47;;;12.25;72.91
77360;BME280;66426;51.454;7.266;2023-05-28T02:32:16;100496.44;;;11.90;74.12
77360;BME280;66426;51.454;7.266;2023-05-28T02:33:17;100497.41;;;11.89;74.20
77360;BME280;66426;51.454;7.266;2023-05-28T02:34:18;100497.13;;;11.76;74.59
77360;BME280;66426;51.454;7.266;2023-05-28T02:35:19;100501.50;;;11.78;74.50
77360;BME280;66426;51.454;7.266;2023-05-28T02:36:22;100500.50;;;11.98;74.30
77360;BME280;66426;51.454;7.266;2023-05-28T02:37:23;100499.09;;;12.26;73.74
77360;BME280;66426;51.454;7.266;2023-05-28T02:38:24;100496.03;;;12.49;72.44
77360;BME280;66426;51.454;7.266;2023-05-28T02:39:25;100503.91;;;12.19;73.46
77360;BME280;66426;51.454;7.266;2023-05-28T02:40:26;100500.56;;;11.97;73.79
77360;BME280;66426;51.454;7.266;2023-05-28T02:41:28;100501.31;;;11.81;74.90
77360;BME280;66426;51.454;7.266;2023-05-28T02:42:29;100499.72;;;11.96;74.26
77360;BME280;66426;51.454;7.266;2023-05-28T02:43:30;100504.00;;;12.18;73.69
77360;BME280;66426;51.454;7.266;2023-05-28T02:44:31;100503.59;;;12.25;73.30
77360;BME280;66426;51.454;7.266;2023-05-28T02:45:32;100507.59;;;12.18;73.44
77360;BME280;66426;51.454;7.266;2023-05-28T02:46:33;100499.72;;;12.14;74.13
77360;BME280;66426;51.454;7.266;2023-05-28T02:47:34;100503.50;;;11.92;74.66
77360;BME280;66426;51.454;7.266;2023-05-28T02:48:35;100501.28;;;12.00;74.33
77360;BME280;66426;51.454;7.266;2023-05-28T02:49:35;100502.41;;;12.14;73.95
77360;BME280;66426;51.454;7.266;2023-05-28T02:50:36;100495.34;;;12.28;73.59
77360;BME280;66426;51.454;7.266;2023-05-28T02:51:37;100497.53;;;12.38;72.69
77360;BME280;66426;51.454;7.266;2023-05-28T02:52:38;100495.75;;;12.38;72.57
77360;BME280;66426;51.454;7.266;2023-05-28T02:53:39;100502.47;;;12.29;72.70
77360;BME280;66426;51.454;7.266;2023-05-28T02:54:40;100502.31;;;12.33;72.35
77360;BME280;66426;51.454;7.266;2023-05-28T02:55:41;100500.13;;;12.23;72.61
77360;BME280;66426;51.454;7.266;2023-05-28T02:56:43;100499.31;;;12.21;73.26
77360;BME280;66426;51.454;7.266;2023-05-28T02:57:44;100504.00;;;12.18;73.02
77360;BME280;66426;51.454;7.266;2023-05-28T02:58:45;100493.69;;;12.26;73.05
77360;BME280;66426;51.454;7.266;2023-05-28T02:59:46;100492.13;;;12.38;72.24
77360;BME280;66426;51.454;7.266;2023-05-28T03:00:47;100491.38;;;12.36;72.52
77360;BME280;66426;51.454;7.266;2023-05-28T03:01:48;100492.00;;;12.23;72.85
77360;BME280;66426;51.454;7.266;2023-05-28T03:02:49;100491.50;;;12.33;72.96
77360;BME280;66426;51.454;7.266;2023-05-28T03:03:49;100490.47;;;12.35;72.84
77360;BME280;66426;51.454;7.266;2023-05-28T03:04:50;100490.22;;;12.40;72.98
77360;BME280;66426;51.454;7.266;2023-05-28T03:05:53;100490.22;;;12.40;72.45
77360;BME280;66426;51.454;7.266;2023-05-28T03:06:54;100494.31;;;12.31;72.63
77360;BME280;66426;51.454;7.266;2023-05-28T03:07:55;100497.94;;;12.13;73.83
77360;BME280;66426;51.454;7.266;2023-05-28T03:08:56;100499.47;;;12.01;74.29
77360;BME280;66426;51.454;7.266;2023-05-28T03:09:58;100495.34;;;11.94;74.18
77360;BME280;66426;51.454;7.266;2023-05-28T03:10:59;100500.34;;;11.82;74.36
77360;BME280;66426;51.454;7.266;2023-05-28T03:12:01;100499.44;;;11.83;74.93
77360;BME280;66426;51.454;7.266;2023-05-28T03:13:03;100494.09;;;11.82;74.61
77360;BME280;66426;51.454;7.266;2023-05-28T03:14:04;100494.91;;;11.84;74.82
77360;BME280;66426;51.454;7.266;2023-05-28T03:15:05;100498.53;;;11.83;74.57
77360;BME280;66426;51.454;7.266;2023-05-28T03:16:06;100496.78;;;11.82;75.02
77360;BME280;66426;51.454;7.266;2023-05-28T03:17:07;100495.94;;;11.81;74.91
77360;BME280;66426;51.454;7.266;2023-05-28T03:18:08;100496.59;;;11.86;75.02
77360;BME280;66426;51.454;7.266;2023-05-28T03:19:09;100498.09;;;11.92;74.06
77360;BME280;66426;51.454;7.266;2023-05-28T03:20:11;100496.97;;;11.79;74.44
77360;BME280;66426;51.454;7.266;2023-05-28T03:21:12;100505.56;;;11.68;75.15
77360;BME280;66426;51.454;7.266;2023-05-28T03:22:13;100505.25;;;11.57;75.80
77360;BME280;66426;51.454;7.266;2023-05-28T03:23:14;100496.94;;;11.42;75.83
77360;BME280;66426;51.454;7.266;2023-05-28T03:24:15;100503.50;;;11.37;76.02
77360;BME280;66426;51.454;7.266;2023-05-28T03:25:16;100505.94;;;11.24;76.51
77360;BME280;66426;51.454;7.266;2023-05-28T03:26:17;100500.81;;;11.18;77.08
77360;BME280;66426;51.454;7.266;2023-05-28T03:27:19;100509.22;;;11.31;76.62
77360;BME280;66426;51.454;7.266;2023-05-28T03:28:20;100503.66;;;11.34;76.45
77360;BME280;66426;51.454;7.266;2023-05-28T03:29:21;100504.25;;;11.77;75.63
77360;BME280;66426;51.454;7.266;2023-05-28T03:30:22;100506.03;;;11.59;75.53
77360;BME280;66426;51.454;7.266;2023-05-28T03:31:27;100509.84;;;11.55;75.45
77360;BME280;66426;51.454;7.266;2023-05-28T03:32:28;100502.00;;;11.31;76.29
77360;BME280;66426;51.454;7.266;2023-05-28T03:33:29;100503.66;;;11.34;76.35
77360;BME280;66426;51.454;7.266;2023-05-28T03:34:30;100509.56;;;11.23;76.14
77360;BME280;66426;51.454;7.266;2023-05-28T03:35:31;100512.91;;;11.28;76.35
77360;BME280;66426;51.454;7.266;2023-05-28T03:36:32;100502.66;;;11.36;75.95
77360;BME280;66426;51.454;7.266;2023-05-28T03:37:34;100509.22;;;11.12;76.48
77360;BME280;66426;51.454;7.266;2023-05-28T03:38:35;100504.34;;;11.01;77.32
77360;BME280;66426;51.454;7.266;2023-05-28T03:39:36;100513.41;;;10.79;77.91
77360;BME280;66426;51.454;7.266;2023-05-28T03:40:37;100494.53;;;10.79;78.39
77360;BME280;66426;51.454;7.266;2023-05-28T03:41:38;100503.50;;;10.80;78.31
77360;BME280;66426;51.454;7.266;2023-05-28T03:42:40;100503.63;;;10.77;78.39
77360;BME280;66426;51.454;7.266;2023-05-28T03:43:41;100501.66;;;10.80;78.41
77360;BME280;66426;51.454;7.266;2023-05-28T03:44:42;100505.06;;;11.05;77.81
77360;BME280;66426;51.454;7.266;2023-05-28T03:45:43;100509.16;;;11.13;76.99
77360;BME280;66426;51.454;7.266;2023-05-28T03:46:44;100505.25;;;11.38;76.76
77360;BME280;66426;51.454;7.266;2023-05-28T03:47:45;100494.78;;;11.68;75.53
77360;BME280;66426;51.454;7.266;2023-05-28T03:48:46;100497.81;;;11.79;74.48
77360;BME280;66426;51.454;7.266;2023-05-28T03:49:47;100502.00;;;11.86;74.50
77360;BME280;66426;51.454;7.266;2023-05-28T03:50:47;100492.00;;;11.89;74.20
77360;BME280;66426;51.454;7.266;2023-05-28T03:51:48;100495.56;;;11.89;74.29
77360;BME280;66426;51.454;7.266;2023-05-28T03:52:49;100499.72;;;11.96;73.83
77360;BME280;66426;51.454;7.266;2023-05-28T03:53:50;100502.91;;;11.85;73.90
77360;BME280;66426;51.454;7.266;2023-05-28T03:54:51;100496.69;;;12.02;73.65
77360;BME280;66426;51.454;7.266;2023-05-28T03:55:52;100502.19;;;12.01;73.38
77360;BME280;66426;51.454;7.266;2023-05-28T03:56:53;100504.06;;;11.99;73.67
77360;BME280;66426;51.454;7.266;2023-05-28T03:57:55;100500.97;;;11.89;73.84
77360;BME280;66426;51.454;7.266;2023-05-28T03:58:56;100505.19;;;11.95;74.20
77360;BME280;66426;51.454;7.266;2023-05-28T03:59:57;100503.22;;;11.98;73.72
77360;BME280;66426;51.454;7.266;2023-05-28T04:00:58;100496.59;;;11.86;74.03
77360;BME280;66426;51.454;7.266;2023-05-28T04:01:58;100496.50;;;11.88;73.92
77360;BME280;66426;51.454;7.266;2023-05-28T04:02:59;100500.41;;;12.00;74.16
77360;BME280;66426;51.454;7.266;2023-05-28T04:04:01;100501.91;;;12.05;73.80
77360;BME280;66426;51.454;7.266;2023-05-28T04:05:02;100505.91;;;12.16;73.10
77360;BME280;66426;51.454;7.266;2023-05-28T04:06:03;100509.78;;;12.10;72.97
77360;BME280;66426;51.454;7.266;2023-05-28T04:07:04;100504.16;;;12.15;73.39
77360;BME280;66426;51.454;7.266;2023-05-28T04:08:06;100503.06;;;12.19;73.23
77360;BME280;66426;51.454;7.266;2023-05-28T04:09:07;100495.13;;;12.16;73.36
77360;BME280;66426;51.454;7.266;2023-05-28T04:10:08;100502.47;;;11.95;73.66
77360;BME280;66426;51.454;7.266;2023-05-28T04:11:09;100503.13;;;12.00;73.60
77360;BME280;66426;51.454;7.266;2023-05-28T04:12:10;100498.97;;;11.93;73.90
77360;BME280;66426;51.454;7.266;2023-05-28T04:13:14;100493.94;;;11.85;74.19
77360;BME280;66426;51.454;7.266;2023-05-28T04:14:15;100499.72;;;11.96;74.39
77360;BME280;66426;51.454;7.266;2023-05-28T04:15:16;100499.88;;;11.74;74.78
77360;BME280;66426;51.454;7.266;2023-05-28T04:16:17;100498.97;;;11.93;74.62
77360;BME280;66426;51.454;7.266;2023-05-28T04:17:20;100494.84;;;12.03;74.23
77360;BME280;66426;51.454;7.266;2023-05-28T04:18:21;100497.19;;;12.11;73.61
77360;BME280;66426;51.454;7.266;2023-05-28T04:19:22;100503.44;;;12.11;73.26
77360;BME280;66426;51.454;7.266;2023-05-28T04:20:23;100492.72;;;12.09;73.33
77360;BME280;66426;51.454;7.266;2023-05-28T04:21:24;100500.13;;;12.06;73.38
77360;BME280;66426;51.454;7.266;2023-05-28T04:22:25;100499.56;;;12.17;73.39
77360;BME280;66426;51.454;7.266;2023-05-28T04:23:26;100509.31;;;12.19;73.18
77360;BME280;66426;51.454;7.266;2023-05-28T04:24:27;100504.72;;;12.21;73.33
77360;BME280;66426;51.454;7.266;2023-05-28T04:25:27;100504.78;;;12.20;73.27
77360;BME280;66426;51.454;7.266;2023-05-28T04:26:29;100505.59;;;12.22;72.71
77360;BME280;66426;51.454;7.266;2023-05-28T04:27:30;100502.88;;;12.04;73.53
77360;BME280;66426;51.454;7.266;2023-05-28T04:28:32;100502.81;;;12.06;73.55
77360;BME280;66426;51.454;7.266;2023-05-28T04:29:34;100502.06;;;12.02;73.61
77360;BME280;66426;51.454;7.266;2023-05-28T04:30:35;100514.78;;;12.00;73.98
77360;BME280;66426;51.454;7.266;2023-05-28T04:31:36;100504.78;;;12.02;73.79
77360;BME280;66426;51.454;7.266;2023-05-28T04:32:37;100512.09;;;12.00;74.06
77360;BME280;66426;51.454;7.266;2023-05-28T04:33:41;100510.28;;;12.01;74.58
77360;BME280;66426;51.454;7.266;2023-05-28T04:34:41;100509.16;;;12.05;74.22
77360;BME280;66426;51.454;7.266;2023-05-28T04:35:42;100505.34;;;12.09;74.17
77360;BME280;66426;51.454;7.266;2023-05-28T04:36:43;100514.47;;;12.06;74.41
77360;BME280;66426;51.454;7.266;2023-05-28T04:37:44;100517.81;;;12.12;74.20
77360;BME280;66426;51.454;7.266;2023-05-28T04:38:46;100509.50;;;12.16;74.10
77360;BME280;66426;51.454;7.266;2023-05-28T04:39:47;100510.41;;;12.15;74.49
77360;BME280;66426;51.454;7.266;2023-05-28T04:40:48;100515.81;;;12.15;74.01
77360;BME280;66426;51.454;7.266;2023-05-28T04:41:53;100516.16;;;12.09;74.57
77360;BME280;66426;51.454;7.266;2023-05-28T04:42:54;100510.41;;;12.15;74.41
77360;BME280;66426;51.454;7.266;2023-05-28T04:43:57;100514.56;;;12.22;74.29
77360;BME280;66426;51.454;7.266;2023-05-28T04:44:58;100522.25;;;12.13;74.81
77360;BME280;66426;51.454;7.266;2023-05-28T04:45:59;100516.78;;;12.14;74.48
77360;BME280;66426;51.454;7.266;2023-05-28T04:47:02;100514.97;;;12.15;74.96
77360;BME280;66426;51.454;7.266;2023-05-28T04:48:04;100525.19;;;12.25;74.41
77360;BME280;66426;51.454;7.266;2023-05-28T04:49:05;100516.31;;;12.23;74.67
77360;BME280;66426;51.454;7.266;2023-05-28T04:50:07;100521.88;;;12.20;74.22
77360;BME280;66426;51.454;7.266;2023-05-28T04:51:08;100520.81;;;12.23;73.96
77360;BME280;66426;51.454;7.266;2023-05-28T04:52:09;100520.69;;;12.26;74.11
77360;BME280;66426;51.454;7.266;2023-05-28T04:53:10;100517.50;;;12.35;74.10
77360;BME280;66426;51.454;7.266;2023-05-28T04:54:10;100517.34;;;12.38;74.22
77360;BME280;66426;51.454;7.266;2023-05-28T04:55:11;100521.63;;;12.42;73.91
77360;BME280;66426;51.454;7.266;2023-05-28T04:56:12;100522.41;;;12.44;74.14
77360;BME280;66426;51.454;7.266;2023-05-28T04:57:14;100522.41;;;12.44;74.14
77360;BME280;66426;51.454;7.266;2023-05-28T04:58:15;100526.22;;;12.40;74.23
77360;BME280;66426;51.454;7.266;2023-05-28T04:59:17;100522.25;;;12.47;74.13
77360;BME280;66426;51.454;7.266;2023-05-28T05:00:19;100532.25;;;12.45;73.89
77360;BME280;66426;51.454;7.266;2023-05-28T05:01:21;100529.44;;;12.31;74.42
77360;BME280;66426;51.454;7.266;2023-05-28T05:02:22;100529.25;;;12.34;74.49
77360;BME280;66426;51.454;7.266;2023-05-28T05:03:24;100523.94;;;12.33;75.06
77360;BME280;66426;51.454;7.266;2023-05-28T05:04:25;100530.88;;;12.38;74.44
77360;BME280;66426;51.454;7.266;2023-05-28T05:05:26;100536.34;;;12.37;74.73
77360;BME280;66426;51.454;7.266;2023-05-28T05:06:26;100536.25;;;12.21;74.62
77360;BME280;66426;51.454;7.266;2023-05-28T05:07:27;100533.28;;;12.08;75.35
77360;BME280;66426;51.454;7.266;2023-05-28T05:08:29;100536.09;;;12.06;75.74
77360;BME280;66426;51.454;7.266;2023-05-28T05:09:30;100539.97;;;12.01;76.35
77360;BME280;66426;51.454;7.266;2023-05-28T05:10:31;100545.88;;;12.09;76.08
77360;BME280;66426;51.454;7.266;2023-05-28T05:11:32;100545.63;;;12.14;75.87
77360;BME280;66426;51.454;7.266;2023-05-28T05:12:33;100545.06;;;12.24;75.60
77360;BME280;66426;51.454;7.266;2023-05-28T05:13:34;100534.19;;;12.26;75.27
77360;BME280;66426;51.454;7.266;2023-05-28T05:14:37;100535.31;;;12.22;74.92
77360;BME280;66426;51.454;7.266;2023-05-28T05:15:37;100536.34;;;12.37;74.95
77360;BME280;66426;51.454;7.266;2023-05-28T05:16:38;100532.66;;;12.20;74.89
77360;BME280;66426;51.454;7.266;2023-05-28T05:17:39;100535.94;;;12.27;74.88
77360;BME280;66426;51.454;7.266;2023-05-28T05:18:41;100528.69;;;12.45;74.52
77360;BME280;66426;51.454;7.266;2023-05-28T05:19:42;100529.72;;;12.42;74.93
77360;BME280;66426;51.454;7.266;2023-05-28T05:20:43;100533.69;;;12.52;74.63